»·PEaware :: SWA2202 KLAS-KSAN

SWA2202 :: KLAS-KSAN

FLIGHT INFORMATION

Flight Status: Arrived
Operator:
Southwest Airlines
More flights by this operator :: More flights under this callsign
Pilot: Daniel W. (24238)
Aircraft: BOEING 737-700
(B737)
More flights by this aircraft type
Origin: KLAS McCarran Intl
United States
Destination: KSAN San Diego Intl-Lindbergh
United States
More flights between these airports :: More routes between these airports
Route: BOACH8 LVELL LUCKI1
File this flight plan on PilotEdge
Remarks: PBN / A1D1O1S2T1 NAV / RNVD1E1A1 RNP10 DOF / 190710 REG / N221WN CODE / A1E6B9 PER / C
Altitude:
(Current/Filed)
28,000ft
Speed:
(Current/Filed)
385kts
Departed: 10-Jul-19 09:59 AM
Arrived: 10-Jul-19 10:42 AM
Distance/Time
Traveled:
225nm/0:43
Distance/Time
To Go:
Arrived

Flight Plot

Page will automatically refresh every two minutes.

Flight plan parsing failed; only flown route is shown


Map Options




Map Legend


Flown Route
Filed Route
Departure Airport
Arrival Airport
Navaid (VOR, NDB)
Fix

Horizontal Profiles

Position Reports

Time Latitude Longitude Heading Altitude Ground
Speed
10-Jul-19 09:13 36.082433 -115.151433 44 2189ft 0kts
10-Jul-19 09:14 36.082433 -115.151433 44 2189ft 0kts
10-Jul-19 09:15 36.082433 -115.151433 44 2189ft 0kts
10-Jul-19 09:16 36.082433 -115.151433 44 2189ft 0kts
10-Jul-19 09:17 36.082433 -115.151433 44 2189ft 0kts
10-Jul-19 09:18 36.082433 -115.151433 44 2189ft 0kts
10-Jul-19 09:19 36.082433 -115.151433 44 2189ft 0kts
10-Jul-19 09:20 36.082433 -115.151433 44 2189ft 0kts
10-Jul-19 09:21 36.082433 -115.151433 44 2189ft 0kts
10-Jul-19 09:22 36.082433 -115.151433 44 2189ft 0kts
10-Jul-19 09:23 36.082433 -115.151433 44 2189ft 0kts
10-Jul-19 09:24 36.082433 -115.151433 44 2189ft 0kts
10-Jul-19 09:25 36.082433 -115.151433 44 2189ft 0kts
10-Jul-19 09:26 36.082433 -115.151433 44 2189ft 0kts
10-Jul-19 09:27 36.082433 -115.151433 44 2189ft 0kts
10-Jul-19 09:28 36.082433 -115.151433 44 2189ft 0kts
10-Jul-19 09:29 36.082433 -115.151433 44 2189ft 0kts
10-Jul-19 09:30 36.082433 -115.151433 44 2189ft 0kts
10-Jul-19 09:31 36.082433 -115.151433 44 2189ft 0kts
10-Jul-19 09:32 36.082433 -115.151433 44 2189ft 0kts
10-Jul-19 09:33 36.082433 -115.151433 44 2189ft 0kts
10-Jul-19 09:34 36.082433 -115.151433 44 2189ft 0kts
10-Jul-19 09:35 36.082433 -115.151433 44 2189ft 0kts
10-Jul-19 09:36 36.082433 -115.151433 44 2189ft 0kts
10-Jul-19 09:37 36.082433 -115.151433 44 2189ft 0kts
10-Jul-19 09:38 36.082433 -115.151433 44 2189ft 0kts
10-Jul-19 09:39 36.082433 -115.151433 44 2189ft 0kts
10-Jul-19 09:40 36.082433 -115.151433 44 2189ft 0kts
10-Jul-19 09:41 36.082433 -115.151433 44 2189ft 0kts
10-Jul-19 09:42 36.082433 -115.151433 44 2189ft 0kts
10-Jul-19 09:43 36.082433 -115.151433 44 2189ft 0kts
10-Jul-19 09:44 36.082433 -115.151433 44 2189ft 0kts
10-Jul-19 09:45 36.082433 -115.151433 44 2189ft 0kts
10-Jul-19 09:46 36.082433 -115.151433 44 2189ft 0kts
10-Jul-19 09:47 36.082433 -115.151433 44 2189ft 0kts
10-Jul-19 09:48 36.082414 -115.151457 44 2189ft 2kts
10-Jul-19 09:49 36.081944 -115.151795 13 2189ft 0kts
10-Jul-19 09:50 36.081944 -115.151795 13 2189ft 0kts
10-Jul-19 09:51 36.081944 -115.151795 13 2189ft 0kts
10-Jul-19 09:52 36.081407 -115.152636 213 2189ft 14kts
10-Jul-19 09:53 36.081218 -115.153738 283 2189ft 0kts
10-Jul-19 09:54 36.083397 -115.156014 335 2189ft 26kts
10-Jul-19 09:55 36.089463 -115.156558 25 2189ft 25kts
10-Jul-19 09:56 36.095999 -115.152808 24 2189ft 26kts
10-Jul-19 09:57 36.098232 -115.153767 204 2189ft 5kts
10-Jul-19 09:58 36.071590 -115.169154 204 3046ft 182kts
10-Jul-19 09:59 36.018190 -115.200979 215 5384ft 246kts
10-Jul-19 10:00 35.977436 -115.281744 225 7008ft 288kts
10-Jul-19 10:01 35.902510 -115.310069 184 10046ft 286kts
10-Jul-19 10:02 35.816690 -115.311234 174 12901ft 345kts
10-Jul-19 10:03 35.717184 -115.299171 174 16201ft 370kts
10-Jul-19 10:04 35.611023 -115.297015 181 18983ft 391kts
10-Jul-19 10:05 35.500513 -115.301720 181 21638ft 404kts
10-Jul-19 10:06 35.386025 -115.306249 181 24118ft 420kts
10-Jul-19 10:07 35.266759 -115.310948 181 26310ft 435kts
10-Jul-19 10:08 35.144613 -115.315750 180 28085ft 442kts
10-Jul-19 10:09 35.022090 -115.320567 180 28080ft 438kts
10-Jul-19 10:10 34.900230 -115.325321 180 28083ft 439kts
10-Jul-19 10:11 34.778468 -115.335731 191 28088ft 441kts
10-Jul-19 10:12 34.661785 -115.382864 198 28099ft 442kts
10-Jul-19 10:13 34.546252 -115.433660 198 28111ft 442kts
10-Jul-19 10:14 34.430513 -115.484088 198 28124ft 442kts
10-Jul-19 10:15 34.315516 -115.537752 206 28133ft 443kts
10-Jul-19 10:16 34.209200 -115.614031 205 28114ft 444kts
10-Jul-19 10:18 34.095187 -115.669524 200 28101ft 442kts
10-Jul-19 10:19 33.980497 -115.723318 200 28084ft 442kts
10-Jul-19 10:20 33.865917 -115.778306 201 28058ft 443kts
10-Jul-19 10:21 33.752240 -115.833842 200 28023ft 440kts
10-Jul-19 10:22 33.638990 -115.886690 200 27942ft 434kts
10-Jul-19 10:23 33.530910 -115.941332 212 26275ft 412kts
10-Jul-19 10:24 33.456869 -116.045398 234 24145ft 417kts
10-Jul-19 10:25 33.391266 -116.157854 233 22097ft 406kts
10-Jul-19 10:26 33.319095 -116.258229 212 20156ft 391kts
10-Jul-19 10:27 33.224953 -116.316492 204 18196ft 377kts
10-Jul-19 10:28 33.130808 -116.371196 204 16218ft 370kts
10-Jul-19 10:29 33.040395 -116.423864 204 14436ft 352kts
10-Jul-19 10:30 32.962748 -116.486653 219 12800ft 327kts
10-Jul-19 10:31 32.897539 -116.553152 218 11826ft 286kts
10-Jul-19 10:32 32.837404 -116.613756 219 10131ft 281kts
10-Jul-19 10:33 32.778530 -116.674459 227 8501ft 277kts
10-Jul-19 10:34 32.738795 -116.752061 240 7121ft 270kts
10-Jul-19 10:35 32.705087 -116.825229 246 5843ft 238kts
10-Jul-19 10:36 32.682908 -116.897265 250 4783ft 226kts
10-Jul-19 10:36 32.676299 -116.954228 282 3941ft 208kts
10-Jul-19 10:38 32.694258 -117.027662 285 2871ft 190kts
10-Jul-19 10:39 32.707445 -117.082070 285 2000ft 145kts
10-Jul-19 10:39 32.716726 -117.120295 287 1274ft 144kts
10-Jul-19 10:40 32.727625 -117.165283 286 333ft 136kts
10-Jul-19 10:41 32.735290 -117.196887 280 23ft 25kts
10-Jul-19 10:42 32.733892 -117.195335 105 23ft 14kts
10-Jul-19 10:43 32.732855 -117.195350 274 23ft 4kts
10-Jul-19 10:44 32.732861 -117.195440 275 23ft 0kts
10-Jul-19 10:45 32.732861 -117.195440 275 23ft 0kts
10-Jul-19 10:46 32.732861 -117.195440 275 23ft 0kts
10-Jul-19 10:47 32.732861 -117.195440 275 23ft 0kts

Navigation Log

Ident Type
Flight plan parsing failed, navigation log unavailable